Time;durP1;ratioP1;P1;durP2;ratioP2;P2;SDS_P1;SDS_P2;PMS_P1;PMS_P2;Temp;Humidity;BMP_temperature;BMP_pressure;BME280_temperature;BME280_humidity;BME280_pressure;Samples;Min_cycle;Max_cycle;Signal;HPM_P1;HPM_P2
2023/06/06 00:00:21;;;;;;;0.40;0.40;;;21.30;67.10;;;21.52;52.06;94939.72;5094411;28;20217;-36
2023/06/06 00:02:49;;;;;;;0.40;0.40;;;21.30;67.10;;;21.54;51.99;94944.78;5094735;28;20233;-40
2023/06/06 00:05:21;;;;;;;0.40;0.40;;;21.20;67.10;;;21.52;51.68;94945.03;5093494;28;20200;-37
2023/06/06 00:07:49;;;;;;;0.40;0.40;;;21.20;67.00;;;21.52;52.08;94944.22;5097832;28;20648;-37
2023/06/06 00:10:17;;;;;;;0.43;0.43;;;21.30;67.10;;;21.52;51.58;94936.22;5097729;28;20186;-38
2023/06/06 00:12:46;;;;;;;0.32;0.32;;;21.20;67.00;;;21.51;51.83;94943.44;5097923;28;20231;-38
2023/06/06 00:15:15;;;;;;;0.30;0.30;;;21.30;67.10;;;21.51;51.67;94937.31;5097855;28;20195;-38
2023/06/06 00:17:44;;;;;;;0.30;0.30;;;21.20;67.10;;;21.50;52.04;94941.81;5097728;28;20194;-37
2023/06/06 00:20:13;;;;;;;0.40;0.40;;;21.30;67.20;;;21.50;52.05;94939.16;5097995;28;20219;-37
2023/06/06 00:22:42;;;;;;;0.40;0.40;;;21.30;68.10;;;21.50;51.84;94935.69;5098020;28;20493;-38
2023/06/06 00:25:10;;;;;;;0.40;0.40;;;21.20;68.10;;;21.50;52.27;94941.81;5097998;28;20194;-37
2023/06/06 00:27:37;;;;;;;0.40;0.40;;;21.30;67.20;;;21.49;51.89;94931.41;5113534;28;20186;-37
2023/06/06 00:30:06;;;;;;;0.30;0.30;;;21.30;67.30;;;21.48;51.86;94933.25;5097625;28;20251;-37
2023/06/06 00:32:33;;;;;;;0.32;0.32;;;21.20;67.10;;;21.48;52.25;94929.81;5097809;28;20206;-37
2023/06/06 00:35:00;;;;;;;0.40;0.40;;;21.30;67.20;;;21.46;52.09;94926.59;5096524;28;20211;-38
2023/06/06 00:37:28;;;;;;;0.40;0.40;;;21.20;67.20;;;21.46;51.95;94919.41;5097218;28;20212;-37
2023/06/06 00:39:55;;;;;;;0.40;0.40;;;21.20;67.20;;;21.46;52.01;94926.59;5097620;28;20303;-38
2023/06/06 00:42:22;;;;;;;0.32;0.32;;;21.20;67.20;;;21.46;51.93;94923.91;5096401;28;20231;-38
2023/06/06 00:44:49;;;;;;;0.38;0.38;;;21.20;67.20;;;21.45;52.30;94928.47;5097803;28;20265;-38
2023/06/06 00:47:17;;;;;;;0.30;0.30;;;21.20;67.20;;;21.46;52.01;94926.59;5096344;28;20212;-36
2023/06/06 00:49:47;;;;;;;0.30;0.30;;;21.20;67.30;;;21.44;51.94;94926.84;5097228;28;20202;-36
2023/06/06 00:52:16;;;;;;;0.30;0.30;;;21.20;68.20;;;21.44;52.22;94926.84;5096386;28;20245;-36
2023/06/06 00:54:44;;;;;;;0.40;0.40;;;21.20;67.30;;;21.44;52.18;94919.63;5113197;28;20225;-36
2023/06/06 00:57:12;;;;;;;0.47;0.47;;;21.20;67.30;;;21.43;52.15;94926.06;5096936;28;20609;-36
2023/06/06 00:59:41;;;;;;;0.40;0.40;;;21.20;67.30;;;21.43;52.10;94917.25;5079308;28;20195;-36
2023/06/06 01:02:14;;;;;;;0.40;0.40;;;21.20;67.30;;;21.44;52.37;94914.31;5097219;28;20230;-36
2023/06/06 01:04:43;;;;;;;0.30;0.30;;;21.20;67.30;;;21.42;52.03;94920.97;5096010;28;20259;-37
2023/06/06 01:07:12;;;;;;;0.40;0.40;;;21.20;67.30;;;21.43;52.18;94917.25;5095770;28;20213;-36
2023/06/06 01:09:41;;;;;;;0.40;0.40;;;21.20;67.30;;;21.42;52.03;94919.13;5097140;28;20236;-36
2023/06/06 01:12:47;;;;;;;0.30;0.30;;;21.20;67.30;;;21.41;51.99;94914.84;5096107;28;20193;-36
2023/06/06 01:15:29;;;;;;;0.45;0.45;;;21.20;67.40;;;21.39;52.43;94913.50;5096713;28;20514;-36
2023/06/06 01:18:01;;;;;;;0.30;0.30;;;21.10;67.30;;;21.38;51.77;94917.22;5095457;28;20206;-36
2023/06/06 01:20:30;;;;;;;0.30;0.30;;;21.10;67.20;;;21.37;52.17;94907.59;5079407;28;20222;-36
2023/06/06 01:23:00;;;;;;;0.50;0.50;;;21.10;67.30;;;21.39;51.95;94921.50;5095653;28;20206;-36
2023/06/06 01:25:27;;;;;;;0.35;0.35;;;21.10;67.30;;;21.38;52.03;94911.88;5095568;28;20186;-36
2023/06/06 01:27:55;;;;;;;0.40;0.40;;;21.10;68.10;;;21.38;52.01;94911.88;5095462;28;20519;-36
2023/06/06 01:30:26;;;;;;;0.40;0.40;;;21.10;67.20;;;21.37;52.22;94915.63;5095460;28;20198;-36
2023/06/06 01:33:24;;;;;;;0.40;0.40;;;21.10;67.20;;;21.36;51.86;94911.34;5095662;28;20701;-37
2023/06/06 01:36:30;;;;;;;0.40;0.40;;;21.10;67.30;;;21.31;52.21;94909.44;5095414;28;20194;-37
2023/06/06 01:39:07;;;;;;;0.40;0.40;;;21.10;67.20;;;21.34;52.40;94911.59;5084535;28;20296;-36
2023/06/06 01:41:38;;;;;;;0.40;0.40;;;21.10;67.20;;;21.33;52.43;94909.19;5096135;28;20778;-37
2023/06/06 01:44:09;;;;;;;0.30;0.30;;;21.10;67.20;;;21.34;52.44;94910.81;5095229;28;20201;-36
2023/06/06 01:46:37;;;;;;;0.40;0.40;;;21.10;67.20;;;21.34;52.03;94906.25;5095570;28;20593;-37
2023/06/06 01:49:04;;;;;;;0.40;0.40;;;21.10;67.20;;;21.33;52.29;94910.00;5095987;28;20264;-37
2023/06/06 01:51:32;;;;;;;0.35;0.35;;;21.10;67.20;;;21.35;52.20;94909.72;5094895;28;20303;-37
2023/06/06 01:53:59;;;;;;;0.40;0.40;;;21.10;67.30;;;21.36;51.81;94914.00;5095032;28;20212;-37
2023/06/06 01:56:27;;;;;;;0.40;0.40;;;21.10;67.20;;;21.34;52.03;94911.59;5111986;28;20193;-36
2023/06/06 01:58:55;;;;;;;0.40;0.40;;;21.10;67.30;;;21.36;52.41;94914.00;5111744;28;20202;-38
2023/06/06 02:01:22;;;;;;;0.40;0.40;;;21.10;67.20;;;21.36;52.17;94911.34;5094809;28;20214;-37
2023/06/06 02:03:49;;;;;;;0.32;0.32;;;21.10;67.30;;;21.35;52.16;94909.72;5094916;28;20225;-38
2023/06/06 02:06:16;;;;;;;0.32;0.32;;;21.10;67.20;;;21.35;52.43;94905.22;5095804;28;20193;-37
2023/06/06 02:08:44;;;;;;;0.50;0.50;;;21.10;67.20;;;21.34;51.71;94908.94;5111635;28;20633;-36
2023/06/06 02:11:11;;;;;;;0.43;0.43;;;21.10;67.20;;;21.34;52.29;94911.59;5078084;28;20202;-36
2023/06/06 02:13:38;;;;;;;0.43;0.43;;;21.10;67.20;;;21.34;52.11;94908.16;5094705;28;20206;-38
2023/06/06 02:16:06;;;;;;;0.40;0.40;;;21.10;67.20;;;21.35;52.14;94904.38;5096174;28;20201;-37
2023/06/06 02:18:33;;;;;;;0.35;0.35;;;21.10;67.20;;;21.34;52.22;94908.16;5094404;28;20198;-37
2023/06/06 02:21:01;;;;;;;0.40;0.40;;;21.10;67.20;;;21.34;52.28;94914.28;5111511;28;20279;-38
2023/06/06 02:23:28;;;;;;;0.50;0.50;;;21.10;67.20;;;21.33;51.82;94912.66;5094516;28;20716;-37
2023/06/06 02:25:55;;;;;;;0.30;0.30;;;21.10;67.20;;;21.32;52.07;94905.72;5095426;28;20198;-37
2023/06/06 02:28:23;;;;;;;0.30;0.30;;;21.10;67.20;;;21.32;52.43;94897.72;5094928;28;20272;-38
2023/06/06 02:30:51;;;;;;;0.40;0.40;;;21.10;67.30;;;21.32;52.01;94904.94;5094723;28;20204;-37
2023/06/06 02:33:19;;;;;;;0.30;0.30;;;21.10;67.20;;;21.31;51.76;94901.44;5095390;28;20186;-38
2023/06/06 02:35:47;;;;;;;0.30;0.30;;;21.10;67.20;;;21.32;52.06;94902.25;5111524;28;20206;-40
2023/06/06 02:38:14;;;;;;;0.40;0.40;;;21.10;67.30;;;21.33;51.83;94903.88;5077908;28;20205;-36
2023/06/06 02:40:42;;;;;;;0.40;0.40;;;21.10;67.30;;;21.32;52.04;94903.03;5095408;28;20237;-36
2023/06/06 02:43:09;;;;;;;0.40;0.40;;;21.10;67.30;;;21.33;51.99;94903.88;5094270;28;20207;-36
2023/06/06 02:45:37;;;;;;;0.30;0.30;;;21.10;68.20;;;21.31;51.93;94901.44;5077449;28;20201;-36
2023/06/06 02:48:05;;;;;;;0.40;0.40;;;21.10;67.30;;;21.32;52.17;94902.25;5094087;28;20205;-36
2023/06/06 02:50:32;;;;;;;0.40;0.40;;;21.10;67.20;;;21.31;52.26;94898.78;5094158;28;20206;-36
2023/06/06 02:53:03;;;;;;;0.40;0.40;;;21.10;67.20;;;21.31;51.80;94904.09;5094047;28;20328;-36
2023/06/06 02:55:30;;;;;;;0.40;0.40;;;21.10;67.30;;;21.31;51.98;94900.66;5094164;28;20198;-36
2023/06/06 02:57:58;;;;;;;0.40;0.40;;;21.10;67.30;;;21.30;52.04;94899.03;5094016;28;20210;-36
2023/06/06 03:00:25;;;;;;;0.40;0.40;;;21.10;67.30;;;21.30;52.26;94904.38;5094003;28;20233;-36
2023/06/06 03:02:52;;;;;;;0.40;0.40;;;21.10;67.30;;;21.31;52.44;94903.31;5094923;28;20548;-36
2023/06/06 03:05:22;;;;;;;0.45;0.45;;;21.10;67.20;;;21.30;51.95;94899.03;5094275;28;20274;-36
2023/06/06 03:07:49;;;;;;;0.40;0.40;;;21.00;67.20;;;21.31;52.39;94905.97;5093865;28;20209;-37
2023/06/06 03:10:17;;;;;;;0.45;0.45;;;21.10;67.30;;;21.28;51.83;94897.44;5094392;28;20311;-38
2023/06/06 03:12:48;;;;;;;0.40;0.40;;;21.10;67.30;;;21.29;52.45;94900.91;5093997;28;20278;-37
2023/06/06 03:15:16;;;;;;;0.50;0.50;;;21.10;67.30;;;21.30;51.95;94899.03;5093935;28;20212;-36
2023/06/06 03:17:48;;;;;;;0.40;0.40;;;21.00;67.20;;;21.28;52.14;94902.75;5110743;28;20195;-36
2023/06/06 03:20:16;;;;;;;0.40;0.40;;;21.10;67.30;;;21.28;52.20;94896.63;5094361;28;20646;-36
2023/06/06 03:22:50;;;;;;;0.43;0.43;;;21.10;67.30;;;21.27;52.19;94906.47;5094210;28;20683;-37
2023/06/06 03:25:19;;;;;;;0.40;0.40;;;21.00;67.20;;;21.27;52.45;94908.38;5110785;28;20205;-38
2023/06/06 03:27:48;;;;;;;0.40;0.40;;;21.00;67.20;;;21.26;52.20;94893.41;5110815;28;20189;-36
2023/06/06 03:30:17;;;;;;;0.40;0.40;;;21.10;67.30;;;21.26;51.95;94898.75;5110679;28;20297;-37
2023/06/06 03:32:45;;;;;;;0.47;0.47;;;21.10;67.30;;;21.24;52.54;94893.69;5093786;28;20198;-37
2023/06/06 03:35:16;;;;;;;0.40;0.40;;;21.00;67.20;;;21.25;52.27;94895.28;5093736;28;20550;-37
2023/06/06 03:37:45;;;;;;;0.45;0.45;;;21.00;67.20;;;21.25;52.15;94894.47;5110532;28;20576;-36
2023/06/06 03:40:13;;;;;;;0.35;0.35;;;21.00;67.30;;;21.25;52.03;94889.97;5093706;28;20644;-37
2023/06/06 03:42:40;;;;;;;0.43;0.43;;;21.00;67.30;;;21.26;52.36;94893.41;5097103;28;20220;-37
2023/06/06 03:45:09;;;;;;;0.40;0.40;;;21.00;67.30;;;21.26;52.46;94898.75;5097543;28;20203;-38
2023/06/06 03:47:37;;;;;;;0.40;0.40;;;21.00;67.20;;;21.24;52.29;94899.03;5098339;28;20260;-37
2023/06/06 03:50:04;;;;;;;0.45;0.45;;;21.00;67.30;;;21.26;51.99;94893.41;5080595;28;20271;-37
2023/06/06 03:52:32;;;;;;;0.40;0.40;;;21.00;67.30;;;21.25;51.99;94903.28;5098317;28;20331;-38
2023/06/06 03:55:00;;;;;;;0.40;0.40;;;21.00;67.30;;;21.25;51.94;94899.81;5097328;28;20199;-37
2023/06/06 03:57:27;;;;;;;0.40;0.40;;;21.00;67.30;;;21.24;52.13;94896.34;5097323;28;20201;-37
2023/06/06 03:59:55;;;;;;;0.30;0.30;;;21.00;67.30;;;21.25;52.31;94897.97;5098072;28;20194;-39
2023/06/06 04:02:22;;;;;;;0.40;0.40;;;21.00;67.30;;;21.25;52.23;94902.47;5097144;28;20232;-37
2023/06/06 04:04:50;;;;;;;0.35;0.35;;;21.00;67.40;;;21.24;52.18;94899.03;5098303;28;20191;-37
2023/06/06 04:07:18;;;;;;;0.40;0.40;;;21.00;67.40;;;21.25;52.16;94897.97;5097372;28;20284;-37
2023/06/06 04:09:45;;;;;;;0.40;0.40;;;21.00;67.40;;;21.24;52.54;94898.22;5097045;28;20630;-37
2023/06/06 04:12:12;;;;;;;0.45;0.45;;;21.00;67.30;;;21.23;52.26;94900.06;5097005;28;20205;-37
2023/06/06 04:14:40;;;;;;;0.40;0.40;;;21.00;67.30;;;21.23;52.39;94894.75;5097011;28;20207;-37
2023/06/06 04:17:09;;;;;;;0.40;0.40;;;21.00;67.40;;;21.24;52.17;94895.56;5097939;28;20201;-38
2023/06/06 04:19:37;;;;;;;0.40;0.40;;;21.00;67.40;;;21.23;52.47;94899.28;5113702;28;20199;-37
2023/06/06 04:22:05;;;;;;;0.30;0.30;;;21.00;67.40;;;21.23;52.10;94899.28;5096778;28;20245;-37
2023/06/06 04:24:33;;;;;;;0.30;0.30;;;21.00;67.40;;;21.23;52.51;94900.06;5080271;28;20205;-38
2023/06/06 04:27:03;;;;;;;0.40;0.40;;;21.00;67.40;;;21.23;51.95;94894.75;5098213;28;20213;-38
2023/06/06 04:29:33;;;;;;;0.40;0.40;;;21.00;67.40;;;21.24;52.22;94895.56;5098481;28;20182;-36
2023/06/06 04:32:02;;;;;;;0.40;0.40;;;21.00;67.40;;;21.22;52.13;94898.47;5097232;28;20193;-36
2023/06/06 04:34:30;;;;;;;0.40;0.40;;;21.00;67.40;;;21.23;52.16;94896.63;5096640;28;20198;-36
2023/06/06 04:37:03;;;;;;;0.30;0.30;;;21.00;67.40;;;21.23;52.54;94891.28;5096555;28;20628;-36
2023/06/06 04:39:34;;;;;;;0.32;0.32;;;21.00;67.40;;;21.23;52.47;94893.94;5096489;28;20197;-36
2023/06/06 04:42:05;;;;;;;0.40;0.40;;;21.00;67.50;;;21.23;52.60;94896.63;5113582;28;20271;-37
2023/06/06 04:44:41;;;;;;;0.40;0.40;;;21.00;67.50;;;21.21;52.48;94899.53;5097242;28;20188;-36
2023/06/06 04:47:10;;;;;;;0.30;0.30;;;21.00;67.50;;;21.22;52.52;94897.69;5096411;28;20200;-36
2023/06/06 04:49:39;;;;;;;0.30;0.30;;;21.00;67.50;;;21.22;52.18;94898.47;5097420;28;20633;-36
2023/06/06 04:52:12;;;;;;;0.40;0.40;;;21.00;67.50;;;21.23;52.41;94896.63;5095627;28;20238;-36
2023/06/06 04:54:41;;;;;;;0.40;0.40;;;21.00;67.50;;;21.23;52.29;94896.63;5097163;28;20511;-36
2023/06/06 04:57:15;;;;;;;0.40;0.40;;;21.00;67.50;;;21.23;52.66;94901.94;5097126;28;20693;-36
2023/06/06 04:59:53;;;;;;;0.47;0.47;;;21.00;67.50;;;21.23;52.61;94896.63;5097214;28;20182;-36
2023/06/06 05:02:22;;;;;;;0.40;0.40;;;21.00;68.50;;;21.20;52.14;94895.28;5096997;28;20210;-36
2023/06/06 05:04:54;;;;;;;0.45;0.45;;;21.00;67.60;;;21.22;52.40;94895.78;5097113;28;20217;-36
2023/06/06 05:07:25;;;;;;;0.30;0.30;;;21.00;67.60;;;21.20;52.60;94897.94;5096370;28;20269;-36
2023/06/06 05:09:56;;;;;;;0.40;0.40;;;21.00;67.50;;;21.19;52.71;94901.66;5097443;28;20253;-36
2023/06/06 05:12:24;;;;;;;0.40;0.40;;;21.00;67.60;;;21.21;52.48;94901.41;5097061;28;20280;-37
2023/06/06 05:14:52;;;;;;;0.40;0.40;;;21.00;67.60;;;21.22;52.77;94900.34;5096842;28;20197;-36
2023/06/06 05:17:20;;;;;;;0.40;0.40;;;21.00;67.60;;;21.22;52.68;94895.00;5096736;28;20762;-38
2023/06/06 05:19:48;;;;;;;0.30;0.30;;;21.00;67.60;;;21.21;52.74;94898.72;5097223;28;20206;-37
2023/06/06 05:22:16;;;;;;;0.40;0.40;;;21.00;67.60;;;21.20;52.49;94897.94;5096558;28;20253;-37
2023/06/06 05:24:43;;;;;;;0.30;0.30;;;21.00;67.70;;;21.21;52.35;94904.84;5096496;28;20189;-36
2023/06/06 05:27:10;;;;;;;0.40;0.40;;;21.00;67.70;;;21.21;52.67;94906.72;5096533;28;20220;-38
2023/06/06 05:29:38;;;;;;;0.40;0.40;;;21.00;67.70;;;21.22;52.82;94916.34;5096809;28;20194;-37
2023/06/06 05:32:06;;;;;;;0.40;0.40;;;21.00;67.70;;;21.21;52.38;94910.19;5095747;28;20284;-37
2023/06/06 05:34:34;;;;;;;0.30;0.30;;;21.00;67.70;;;21.21;52.42;94912.06;5096227;28;20196;-38
2023/06/06 05:37:01;;;;;;;0.43;0.43;;;21.00;67.70;;;21.21;52.95;94912.84;5095745;28;20202;-37
2023/06/06 05:39:28;;;;;;;0.30;0.30;;;21.00;67.70;;;21.21;52.84;94912.84;5096267;28;20195;-37
2023/06/06 05:41:56;;;;;;;0.40;0.40;;;21.00;67.70;;;21.21;52.57;94918.19;5096139;28;20210;-37
2023/06/06 05:44:23;;;;;;;0.40;0.40;;;21.00;67.70;;;21.22;52.83;94916.34;5096044;28;20198;-37
2023/06/06 05:46:54;;;;;;;0.40;0.40;;;21.00;67.70;;;21.21;52.61;94920.88;5096413;28;20198;-37
2023/06/06 05:49:24;;;;;;;0.50;0.50;;;21.00;67.70;;;21.21;53.14;94922.75;5096395;28;20198;-38
2023/06/06 05:51:51;;;;;;;0.30;0.30;;;21.00;67.70;;;21.21;53.00;94915.53;5095895;28;20319;-37
2023/06/06 05:54:19;;;;;;;0.30;0.30;;;21.00;67.70;;;21.21;52.85;94917.41;5096199;28;20237;-38
2023/06/06 05:56:46;;;;;;;0.40;0.40;;;21.00;67.80;;;21.21;52.53;94920.88;5096003;28;20252;-37
2023/06/06 05:59:13;;;;;;;0.30;0.30;;;21.00;67.80;;;21.21;52.95;94920.88;5095985;28;20812;-37
2023/06/06 06:01:43;;;;;;;0.35;0.35;;;21.00;67.80;;;21.22;52.78;94922.47;5096071;28;20271;-37
2023/06/06 06:04:10;;;;;;;0.30;0.30;;;21.00;67.90;;;21.22;53.01;94927.03;5095205;28;20636;-38
2023/06/06 06:06:38;;;;;;;0.50;0.50;;;21.00;67.80;;;21.22;52.83;94925.13;5095805;28;20273;-40
2023/06/06 06:09:05;;;;;;;0.40;0.40;;;21.00;67.90;;;21.22;53.04;94927.81;5095906;28;20556;-38
2023/06/06 06:11:33;;;;;;;0.35;0.35;;;21.00;67.90;;;21.23;53.12;94920.63;5095689;28;20194;-38
2023/06/06 06:14:00;;;;;;;0.50;0.50;;;21.00;67.80;;;21.23;53.19;94926.75;5095661;28;20189;-39
2023/06/06 06:16:27;;;;;;;0.40;0.40;;;21.00;67.90;;;21.22;52.60;94927.03;5112322;28;20255;-37
2023/06/06 06:18:55;;;;;;;0.40;0.40;;;21.00;67.90;;;21.23;53.05;94928.63;5095742;28;20213;-40
2023/06/06 06:21:22;;;;;;;0.40;0.40;;;21.00;67.90;;;21.23;53.33;94924.09;5095571;28;20354;-36
2023/06/06 06:23:49;;;;;;;0.50;0.50;;;21.00;67.90;;;21.24;52.74;94932.91;5095898;28;20190;-36
2023/06/06 06:26:17;;;;;;;0.43;0.43;;;21.00;68.00;;;21.24;53.10;94936.38;5095468;28;20285;-36
2023/06/06 06:28:44;;;;;;;0.50;0.50;;;21.00;67.90;;;21.24;52.64;94932.91;5095447;28;20751;-36
2023/06/06 06:31:12;;;;;;;0.40;0.40;;;21.00;67.90;;;21.25;52.73;94931.81;5095421;28;20215;-37
2023/06/06 06:33:39;;;;;;;0.50;0.50;;;21.00;67.90;;;21.24;53.15;94932.91;5095238;28;20198;-36
2023/06/06 06:36:06;;;;;;;0.30;0.30;;;21.10;68.00;;;21.25;53.09;94937.16;5096173;28;20210;-36
2023/06/06 06:38:36;;;;;;;0.50;0.50;;;21.00;68.00;;;21.25;52.56;94932.63;5095306;28;20190;-36
2023/06/06 06:41:04;;;;;;;0.40;0.40;;;21.10;68.10;;;21.25;52.75;94935.31;5095229;28;20190;-36
2023/06/06 06:43:31;;;;;;;0.40;0.40;;;21.00;68.00;;;21.26;53.03;94942.25;5095159;28;20711;-36
2023/06/06 06:46:10;;;;;;;0.50;0.50;;;21.10;68.10;;;21.26;52.69;94946.75;5079193;28;20277;-36
2023/06/06 06:48:37;;;;;;;0.40;0.40;;;21.10;68.10;;;21.27;52.91;94945.72;5095470;28;20202;-36
2023/06/06 06:51:05;;;;;;;0.38;0.38;;;21.00;68.00;;;21.26;53.02;94944.09;5094146;28;20632;-36
2023/06/06 06:53:36;;;;;;;0.32;0.32;;;21.00;68.00;;;21.26;53.24;94947.59;5094301;28;20193;-36
2023/06/06 06:56:04;;;;;;;0.40;0.40;;;21.00;68.00;;;21.26;53.13;94944.09;5094243;28;20174;-36
2023/06/06 06:58:35;;;;;;;0.40;0.40;;;21.10;68.10;;;21.26;53.07;94947.59;5095074;28;20578;-36
2023/06/06 07:01:03;;;;;;;0.40;0.40;;;21.10;68.10;;;21.28;52.98;94952.66;5095487;28;20575;-36
2023/06/06 07:03:34;;;;;;;0.32;0.32;;;21.10;68.10;;;21.27;53.31;94957.16;5095019;28;20210;-36
2023/06/06 07:06:04;;;;;;;0.40;0.40;;;21.10;68.10;;;21.27;53.28;94956.38;5093949;28;20636;-36
2023/06/06 07:08:31;;;;;;;0.30;0.30;;;21.10;68.10;;;21.28;53.21;94956.13;5095010;28;20532;-36
2023/06/06 07:10:58;;;;;;;0.40;0.40;;;21.10;68.10;;;21.28;52.93;94955.31;5095000;28;20190;-36
2023/06/06 07:13:25;;;;;;;0.40;0.40;;;21.10;68.10;;;21.28;53.28;94950.78;5095067;28;20240;-36
2023/06/06 07:15:52;;;;;;;0.30;0.30;;;21.10;68.10;;;21.28;53.39;94950.00;5097310;28;20234;-37
2023/06/06 07:18:19;;;;;;;0.40;0.40;;;21.10;68.10;;;21.28;53.16;94950.78;5099363;28;20195;-36
2023/06/06 07:20:46;;;;;;;0.40;0.40;;;21.10;68.10;;;21.28;53.18;94950.78;5099019;28;20199;-36
2023/06/06 07:23:14;;;;;;;0.30;0.30;;;21.10;68.10;;;21.29;53.18;94951.59;5098921;28;20311;-36
2023/06/06 07:25:42;;;;;;;0.40;0.40;;;21.10;68.10;;;21.30;52.87;94952.38;5098946;28;20249;-37
2023/06/06 07:28:10;;;;;;;0.38;0.38;;;21.10;68.10;;;21.30;53.15;94957.72;5099241;28;20189;-36
2023/06/06 07:30:37;;;;;;;0.40;0.40;;;21.10;68.10;;;21.30;53.16;94958.53;5099077;28;20232;-38
2023/06/06 07:33:04;;;;;;;0.40;0.40;;;21.10;68.10;;;21.31;53.00;94959.34;5097934;28;20297;-38
2023/06/06 07:35:32;;;;;;;0.50;0.50;;;21.10;68.10;;;21.31;53.35;94957.47;5098566;28;20194;-37
2023/06/06 07:38:02;;;;;;;0.38;0.38;;;21.10;68.10;;;21.30;52.86;94953.22;5097695;28;20206;-36
2023/06/06 07:40:29;;;;;;;0.30;0.30;;;21.10;68.20;;;21.30;53.07;94950.53;5098946;28;20667;-37
2023/06/06 07:42:57;;;;;;;0.45;0.45;;;21.10;68.10;;;21.30;53.34;94950.53;5098922;28;20317;-37
2023/06/06 07:45:24;;;;;;;0.40;0.40;;;21.10;68.10;;;21.31;53.01;94952.13;5097804;28;20267;-36
2023/06/06 07:47:51;;;;;;;0.40;0.40;;;21.10;68.20;;;21.31;53.44;94957.47;5098609;28;20186;-37
2023/06/06 07:50:19;;;;;;;0.32;0.32;;;21.10;68.20;;;21.32;52.90;94956.41;5098460;28;20252;-37
2023/06/06 07:52:46;;;;;;;0.30;0.30;;;21.10;68.20;;;21.32;53.25;94960.94;5098356;28;20250;-38
2023/06/06 07:55:14;;;;;;;0.40;0.40;;;21.10;68.20;;;21.32;53.16;94956.41;5098719;28;20217;-37
2023/06/06 07:57:41;;;;;;;0.40;0.40;;;21.10;68.20;;;21.33;53.29;94952.69;5098540;28;20641;-37
2023/06/06 08:00:10;;;;;;;0.40;0.40;;;21.10;68.20;;;21.35;53.18;94952.41;5097814;28;20269;-37
2023/06/06 08:02:39;;;;;;;0.30;0.30;;;21.10;68.20;;;21.34;53.56;94956.97;5098639;28;20304;-36
2023/06/06 08:05:08;;;;;;;0.35;0.35;;;21.10;68.10;;;21.35;53.39;94955.91;5098063;28;20194;-36
2023/06/06 08:07:40;;;;;;;0.30;0.30;;;21.10;68.20;;;21.36;53.46;94951.34;5097216;28;20252;-36
2023/06/06 08:10:08;;;;;;;0.30;0.30;;;21.10;68.10;;;21.36;53.40;94943.34;5098097;28;20275;-36
2023/06/06 08:12:37;;;;;;;0.50;0.50;;;21.10;68.20;;;21.37;52.89;94951.13;5097979;28;20643;-36
2023/06/06 08:15:05;;;;;;;0.32;0.32;;;21.20;68.20;;;21.37;53.00;94948.44;5097846;28;20213;-36
2023/06/06 08:17:32;;;;;;;0.30;0.30;;;21.10;68.10;;;21.37;53.51;94952.97;5097859;28;20234;-36
2023/06/06 08:19:59;;;;;;;0.40;0.40;;;21.10;68.20;;;21.37;53.13;94948.44;5097951;28;20545;-36
2023/06/06 08:22:29;;;;;;;0.30;0.30;;;21.20;68.20;;;21.39;53.06;94946.31;5097776;28;20217;-37
2023/06/06 08:24:56;;;;;;;0.40;0.40;;;21.20;68.20;;;21.39;53.25;94943.63;5096686;28;20195;-40
2023/06/06 08:27:23;;;;;;;0.40;0.40;;;21.20;68.20;;;21.41;53.45;94948.72;5097487;28;20269;-37
2023/06/06 08:29:50;;;;;;;0.30;0.30;;;21.20;68.20;;;21.41;53.50;94946.03;5097775;28;20199;-36
2023/06/06 08:32:17;;;;;;;0.30;0.30;;;21.20;68.20;;;21.42;53.16;94950.31;5098010;28;20271;-36
2023/06/06 08:34:45;;;;;;;0.30;0.30;;;21.20;68.20;;;21.44;53.04;94954.31;5097492;28;20553;-36
2023/06/06 08:37:12;;;;;;;0.38;0.38;;;21.20;68.30;;;21.47;52.98;94946.88;5097537;28;20195;-37
2023/06/06 08:39:40;;;;;;;0.30;0.30;;;21.20;68.20;;;21.47;53.58;94947.69;5113549;28;20198;-36
2023/06/06 08:42:09;;;;;;;0.38;0.38;;;21.20;68.30;;;21.49;53.35;94944.75;5097439;28;20245;-36
2023/06/06 08:44:38;;;;;;;0.45;0.45;;;21.30;68.30;;;21.50;53.14;94939.16;5097589;28;20202;-36
2023/06/06 08:47:06;;;;;;;0.40;0.40;;;21.30;68.30;;;21.51;53.62;94948.78;5097382;28;20195;-36
2023/06/06 08:49:37;;;;;;;0.30;0.30;;;21.30;68.30;;;21.53;53.23;94948.50;5113267;28;20208;-37
2023/06/06 08:52:07;;;;;;;0.30;0.30;;;21.30;68.30;;;21.53;53.45;94946.66;5097147;28;20550;-36
2023/06/06 08:54:36;;;;;;;0.38;0.38;;;21.30;68.20;;;21.54;53.20;94948.22;5096299;28;20513;-38
2023/06/06 08:57:08;;;;;;;0.30;0.30;;;21.30;69.20;;;21.58;53.26;94948.53;5097458;28;20191;-36
2023/06/06 08:59:37;;;;;;;0.30;0.30;;;21.40;68.30;;;21.58;53.43;94951.22;5113153;28;20171;-36
2023/06/06 09:02:08;;;;;;;0.40;0.40;;;21.40;68.40;;;21.61;53.41;94950.72;5097096;28;20234;-37
2023/06/06 09:04:35;;;;;;;0.30;0.30;;;21.40;68.40;;;21.61;53.53;94948.03;5096892;28;20260;-37
2023/06/06 09:07:12;;;;;;;0.40;0.40;;;21.40;68.40;;;21.64;53.51;94955.53;5097276;28;20532;-37
2023/06/06 09:09:40;;;;;;;0.30;0.30;;;21.50;68.40;;;21.65;53.47;94957.13;5097230;28;20193;-37
2023/06/06 09:12:08;;;;;;;0.40;0.40;;;21.40;68.30;;;21.66;53.54;94947.25;5096109;28;20244;-38
2023/06/06 09:14:35;;;;;;;0.30;0.30;;;21.50;68.40;;;21.69;53.42;94950.22;5096983;28;20210;-36
2023/06/06 09:17:03;;;;;;;0.47;0.47;;;21.50;68.40;;;21.70;53.48;94946.50;5096767;28;20590;-36
2023/06/06 09:19:32;;;;;;;0.30;0.30;;;21.50;68.40;;;21.73;53.80;94953.16;5097040;28;20267;-37
2023/06/06 09:22:05;;;;;;;0.40;0.40;;;21.50;68.40;;;21.75;53.40;94951.03;5096850;28;20220;-36
2023/06/06 09:24:43;;;;;;;0.40;0.40;;;21.50;68.40;;;21.77;53.38;94958.78;5096631;28;20237;-36
2023/06/06 09:27:28;;;;;;;0.40;0.40;;;21.60;68.40;;;21.79;53.24;94953.97;5096593;28;20598;-36
2023/06/06 09:29:56;;;;;;;0.30;0.30;;;21.60;68.40;;;21.80;53.72;94959.06;5096796;28;20526;-38
2023/06/06 09:32:30;;;;;;;0.40;0.40;;;21.60;68.40;;;21.82;53.51;94959.59;5096476;28;20224;-37
2023/06/06 09:35:03;;;;;;;0.40;0.40;;;21.60;68.40;;;21.84;53.22;94951.34;5096325;28;20221;-38
2023/06/06 09:37:31;;;;;;;0.40;0.40;;;21.70;68.40;;;21.87;53.22;94950.81;5113000;28;20629;-36
2023/06/06 09:40:17;;;;;;;0.30;0.30;;;21.70;68.40;;;21.88;53.64;94952.41;5097795;28;20256;-37
2023/06/06 09:42:48;;;;;;;0.40;0.40;;;21.70;68.40;;;21.89;53.53;94952.16;5112217;28;20315;-36
2023/06/06 09:45:18;;;;;;;0.30;0.30;;;21.70;68.30;;;21.91;53.68;94952.69;5096074;28;20219;-36
2023/06/06 09:47:47;;;;;;;0.38;0.38;;;21.70;68.30;;;21.95;53.25;94954.81;5112442;28;20212;-36
2023/06/06 09:50:19;;;;;;;0.40;0.40;;;21.70;68.30;;;21.97;53.21;94947.34;5096446;28;20231;-36
2023/06/06 09:52:51;;;;;;;0.40;0.40;;;21.70;68.30;;;21.98;53.25;94955.09;5095962;28;20230;-36
2023/06/06 09:55:20;;;;;;;0.40;0.40;;;21.80;68.40;;;22.02;53.56;94950.03;5096380;28;20604;-36
2023/06/06 09:57:49;;;;;;;0.40;0.40;;;21.80;68.40;;;22.03;53.45;94940.97;5111964;28;20598;-36
2023/06/06 10:00:17;;;;;;;0.40;0.40;;;21.80;68.30;;;22.05;53.38;94936.97;5112059;28;20229;-36
2023/06/06 10:02:47;;;;;;;0.32;0.32;;;21.80;68.40;;;22.07;53.15;94942.06;5096120;28;20731;-36
2023/06/06 10:05:23;;;;;;;0.30;0.30;;;21.80;68.40;;;22.09;53.62;94945.25;5094791;28;20201;-36
2023/06/06 10:07:51;;;;;;;0.40;0.40;;;21.90;68.40;;;22.11;53.14;94937.78;5096585;28;20308;-36
2023/06/06 10:10:18;;;;;;;0.30;0.30;;;21.90;68.40;;;22.14;53.42;94949.81;5095169;28;20621;-36
2023/06/06 10:12:47;;;;;;;0.30;0.30;;;21.90;68.40;;;22.16;53.53;94947.69;5095704;28;20255;-36
2023/06/06 10:15:14;;;;;;;0.30;0.30;;;21.90;68.40;;;22.17;53.55;94946.63;5095763;28;20193;-36
2023/06/06 10:17:43;;;;;;;0.40;0.40;;;22.00;68.40;;;22.18;53.32;94943.69;5094796;28;20275;-36
2023/06/06 10:20:12;;;;;;;0.32;0.32;;;22.00;68.40;;;22.20;53.27;94940.72;5095865;28;20202;-36
2023/06/06 10:22:40;;;;;;;0.32;0.32;;;22.00;68.40;;;22.23;53.19;94946.34;5095472;28;20284;-36
2023/06/06 10:25:11;;;;;;;0.40;0.40;;;22.00;68.40;;;22.25;53.46;94940.72;5094530;28;20205;-36
2023/06/06 10:27:47;;;;;;;0.30;0.30;;;22.00;68.30;;;22.28;53.46;94942.88;5077759;28;20194;-36